createdAt,value
2022-12-26T00:01:28.812Z,98687.00
2022-12-26T00:03:56.377Z,98703.09
2022-12-26T00:06:26.627Z,98705.69
2022-12-26T00:08:54.490Z,98709.34
2022-12-26T00:11:22.429Z,98707.41
2022-12-26T00:13:57.610Z,98696.00
2022-12-26T00:16:26.301Z,98695.59
2022-12-26T00:18:53.588Z,98687.34
2022-12-26T00:21:21.892Z,98692.09
2022-12-26T00:23:48.786Z,98695.44
2022-12-26T00:26:18.077Z,98694.94
2022-12-26T00:28:45.490Z,98695.44
2022-12-26T00:31:15.141Z,98703.03
2022-12-26T00:33:42.716Z,98685.13
2022-12-26T00:36:15.528Z,98679.91
2022-12-26T00:38:43.869Z,98694.28
2022-12-26T00:41:13.560Z,98689.09
2022-12-26T00:43:40.588Z,98693.03
2022-12-26T00:46:08.617Z,98701.09
2022-12-26T00:48:35.474Z,98698.78
2022-12-26T00:51:02.745Z,98699.34
2022-12-26T00:53:29.615Z,98699.66
2022-12-26T00:55:56.714Z,98696.41
2022-12-26T00:58:24.491Z,98698.56
2022-12-26T01:00:52.391Z,98689.94
2022-12-26T01:03:19.700Z,98690.50
2022-12-26T01:05:51.484Z,98697.28
2022-12-26T01:08:20.545Z,98698.63
2022-12-26T01:10:50.869Z,98696.94
2022-12-26T01:13:17.773Z,98688.31
2022-12-26T01:15:53.112Z,98682.00
2022-12-26T01:18:21.609Z,98669.31
2022-12-26T01:20:51.235Z,98689.00
2022-12-26T01:23:18.328Z,98680.25
2022-12-26T01:26:19.308Z,98689.41
2022-12-26T01:28:32.114Z,98695.44
2022-12-26T01:31:05.678Z,98695.72
2022-12-26T01:33:33.231Z,98699.25
2022-12-26T01:36:00.472Z,98706.25
2022-12-26T01:38:27.424Z,98700.59
2022-12-26T01:41:14.252Z,98713.53
2022-12-26T01:44:00.002Z,98712.75
2022-12-26T01:46:36.876Z,98717.63
2022-12-26T01:49:15.845Z,98716.03
2022-12-26T01:51:46.234Z,98717.59
2022-12-26T01:54:39.704Z,98714.38
2022-12-26T01:57:04.876Z,98709.81
2022-12-26T01:59:35.974Z,98709.53
2022-12-26T02:02:03.738Z,98719.81
2022-12-26T02:05:10.550Z,98712.50
2022-12-26T02:07:40.388Z,98701.19
2022-12-26T02:10:12.872Z,98697.16
2022-12-26T02:12:41.117Z,98684.44
2022-12-26T02:15:13.091Z,98707.94
2022-12-26T02:17:40.926Z,98709.47
2022-12-26T02:20:26.633Z,98715.03
2022-12-26T02:23:15.906Z,98731.56
2022-12-26T02:25:51.659Z,98717.06
2022-12-26T02:28:49.199Z,98717.13
2022-12-26T02:31:37.998Z,98726.03
2022-12-26T02:34:20.722Z,98726.72
2022-12-26T02:37:03.538Z,98721.50
2022-12-26T02:39:54.790Z,98729.06
2022-12-26T02:42:48.897Z,98733.22
2022-12-26T02:45:52.941Z,98732.53
2022-12-26T02:48:52.314Z,98730.75
2022-12-26T02:52:07.364Z,98734.53
2022-12-26T02:55:23.860Z,98729.34
2022-12-26T02:58:15.717Z,98736.88
2022-12-26T03:01:05.462Z,98730.06
2022-12-26T03:03:53.970Z,98736.78
2022-12-26T03:06:47.498Z,98716.31
2022-12-26T03:09:38.710Z,98719.25
2022-12-26T03:12:41.226Z,98725.13
2022-12-26T03:15:18.952Z,98705.75
2022-12-26T03:18:00.970Z,98695.03
2022-12-26T03:20:31.065Z,98692.09
2022-12-26T03:23:01.665Z,98691.81
2022-12-26T03:26:04.519Z,98693.38
2022-12-26T03:28:31.599Z,98683.88
2022-12-26T03:31:01.509Z,98676.53
2022-12-26T03:33:50.564Z,98682.16
2022-12-26T03:37:07.805Z,98691.13
2022-12-26T03:40:08.212Z,98689.28
2022-12-26T03:43:10.320Z,98695.19
2022-12-26T03:46:05.067Z,98693.25
2022-12-26T03:48:53.936Z,98687.28
2022-12-26T03:51:47.953Z,98689.63
2022-12-26T03:54:39.885Z,98704.31
2022-12-26T03:57:31.394Z,98692.81
2022-12-26T04:00:16.736Z,98697.50
2022-12-26T04:03:05.809Z,98704.31
2022-12-26T04:05:56.417Z,98706.25
2022-12-26T04:08:46.962Z,98690.09
2022-12-26T04:11:35.882Z,98701.50
2022-12-26T04:14:36.924Z,98708.56
2022-12-26T04:17:44.056Z,98705.66
2022-12-26T04:20:24.340Z,98708.06
2022-12-26T04:23:20.999Z,98706.44
2022-12-26T04:26:16.954Z,98701.03
2022-12-26T04:29:02.433Z,98695.44
2022-12-26T04:31:57.587Z,98697.03
2022-12-26T04:35:09.182Z,98682.44
2022-12-26T04:38:00.188Z,98687.78
2022-12-26T04:40:49.260Z,98689.31
2022-12-26T04:43:48.925Z,98683.13
2022-12-26T04:46:20.790Z,98673.97
2022-12-26T04:49:09.083Z,98681.72
2022-12-26T04:51:36.049Z,98693.50
2022-12-26T04:54:04.107Z,98691.00
2022-12-26T04:56:31.346Z,98704.25
2022-12-26T04:58:58.085Z,98709.66
2022-12-26T05:01:43.502Z,98710.69
2022-12-26T05:04:36.748Z,98709.88
2022-12-26T05:07:25.315Z,98719.69
2022-12-26T05:09:53.907Z,98721.38
2022-12-26T05:12:21.150Z,98722.81
2022-12-26T05:14:47.957Z,98724.47
2022-12-26T05:17:33.434Z,98722.00
2022-12-26T05:20:18.744Z,98728.66
2022-12-26T05:23:05.325Z,98723.69
2022-12-26T05:25:58.860Z,98718.34
2022-12-26T05:28:44.084Z,98723.84
2022-12-26T05:31:16.453Z,98730.84
2022-12-26T05:34:02.594Z,98740.59
2022-12-26T05:36:34.677Z,98723.03
2022-12-26T05:39:02.072Z,98723.63
2022-12-26T05:41:29.162Z,98726.06
2022-12-26T05:43:55.946Z,98719.25
2022-12-26T05:46:22.755Z,98719.03
2022-12-26T05:48:49.480Z,98715.31
2022-12-26T05:51:16.263Z,98708.38
2022-12-26T05:53:43.143Z,98714.72
2022-12-26T05:56:12.668Z,98717.19
2022-12-26T05:58:40.331Z,98711.78
2022-12-26T06:01:27.031Z,98718.00
2022-12-26T06:03:56.525Z,98705.56
2022-12-26T06:06:24.526Z,98693.41
2022-12-26T06:08:53.127Z,98695.03
2022-12-26T06:11:21.011Z,98705.78
2022-12-26T06:13:47.796Z,98705.19
2022-12-26T06:16:17.374Z,98706.53
2022-12-26T06:18:45.062Z,98706.44
2022-12-26T06:21:15.150Z,98713.97
2022-12-26T06:23:42.503Z,98703.66
2022-12-26T06:26:10.401Z,98696.38
2022-12-26T06:28:37.513Z,98694.97
2022-12-26T06:31:09.829Z,98695.78
2022-12-26T06:33:37.164Z,98697.38
2022-12-26T06:36:10.665Z,98699.59
2022-12-26T06:38:37.939Z,98696.38
2022-12-26T06:41:06.550Z,98699.66
2022-12-26T06:43:33.874Z,98727.25
2022-12-26T06:46:02.358Z,98730.72
2022-12-26T06:48:29.264Z,98743.69
2022-12-26T06:50:56.295Z,98741.72
2022-12-26T06:53:24.564Z,98741.91
2022-12-26T06:55:51.905Z,98754.59
2022-12-26T06:58:18.842Z,98760.53
2022-12-26T07:00:45.736Z,98762.22
2022-12-26T07:03:12.641Z,98760.94
2022-12-26T07:05:39.590Z,98763.97
2022-12-26T07:08:07.081Z,98770.41
2022-12-26T07:10:37.236Z,98757.44
2022-12-26T07:13:04.057Z,98753.13
2022-12-26T07:15:31.360Z,98754.81
2022-12-26T07:17:58.203Z,98755.34
2022-12-26T07:20:25.064Z,98754.22
2022-12-26T07:22:51.800Z,98761.84
2022-12-26T07:25:18.540Z,98754.81
2022-12-26T07:27:45.565Z,98756.19
2022-12-26T07:30:12.527Z,98751.16
2022-12-26T07:32:39.292Z,98746.09
2022-12-26T07:35:06.242Z,98746.94
2022-12-26T07:37:33.045Z,98749.97
2022-12-26T07:39:59.887Z,98754.78
2022-12-26T07:42:26.726Z,98754.22
2022-12-26T07:44:53.442Z,98747.91
2022-12-26T07:47:20.303Z,98751.88
2022-12-26T07:49:47.763Z,98759.22
2022-12-26T07:52:14.589Z,98781.59
2022-12-26T07:54:41.384Z,98774.22
2022-12-26T07:57:38.076Z,98779.56
2022-12-26T07:59:55.298Z,98784.47
2022-12-26T08:02:22.354Z,98790.38
2022-12-26T08:04:49.287Z,98793.59
2022-12-26T08:07:16.188Z,98800.63
2022-12-26T08:09:44.964Z,98805.75
2022-12-26T08:12:13.085Z,98801.13
2022-12-26T08:14:40.580Z,98810.06
2022-12-26T08:17:08.102Z,98820.16
2022-12-26T08:19:35.336Z,98823.22
2022-12-26T08:22:02.091Z,98835.44
2022-12-26T08:24:28.936Z,98839.78
2022-12-26T08:26:55.678Z,98845.97
2022-12-26T08:29:22.663Z,98853.81
2022-12-26T08:31:49.387Z,98854.63
2022-12-26T08:34:16.107Z,98868.47
2022-12-26T08:36:43.980Z,98877.09
2022-12-26T08:39:10.875Z,98886.47
2022-12-26T08:41:38.753Z,98898.03
2022-12-26T08:46:53.054Z,98909.25
2022-12-26T08:49:19.779Z,98909.41
2022-12-26T08:51:46.520Z,98915.19
2022-12-26T08:54:13.250Z,98916.75
2022-12-26T08:56:40.303Z,98902.84
2022-12-26T08:59:08.118Z,98901.16
2022-12-26T09:01:35.195Z,98909.00
2022-12-26T09:04:04.252Z,98913.59
2022-12-26T09:06:37.403Z,98926.88
2022-12-26T09:09:05.755Z,98930.88
2022-12-26T09:11:33.473Z,98933.59
2022-12-26T09:14:01.951Z,98937.91
2022-12-26T09:16:37.152Z,98940.63
2022-12-26T09:19:06.550Z,98943.34
2022-12-26T09:21:33.555Z,98938.94
2022-12-26T09:24:05.447Z,98947.00
2022-12-26T09:26:33.331Z,98939.91
2022-12-26T09:29:00.084Z,98939.31
2022-12-26T09:31:29.754Z,98964.22
2022-12-26T09:33:56.848Z,98954.19
2022-12-26T09:36:31.656Z,98970.75
2022-12-26T09:38:59.070Z,98980.78
2022-12-26T09:41:44.307Z,98988.09
2022-12-26T09:44:30.841Z,98990.03
2022-12-26T09:47:25.491Z,98977.84
2022-12-26T09:50:18.030Z,98970.03
2022-12-26T09:52:54.721Z,98957.84
2022-12-26T09:55:42.904Z,98960.03
2022-12-26T09:58:28.441Z,98957.84
2022-12-26T10:01:20.569Z,98969.78
2022-12-26T10:03:53.682Z,98971.72
2022-12-26T10:06:34.163Z,98979.53
2022-12-26T10:09:25.780Z,98977.34
2022-12-26T10:12:06.703Z,98976.81
2022-12-26T10:15:04.537Z,98982.75
2022-12-26T10:17:40.235Z,98983.06
2022-12-26T10:20:17.741Z,98974.69
2022-12-26T10:23:22.555Z,99000.72
2022-12-26T10:26:14.924Z,99001.81
2022-12-26T10:29:13.177Z,98996.97
2022-12-26T10:31:45.006Z,98989.16
2022-12-26T10:34:20.089Z,98997.28
2022-12-26T10:36:53.949Z,98985.09
2022-12-26T10:39:33.502Z,98981.09
2022-12-26T10:42:11.503Z,98974.84
2022-12-26T10:44:40.788Z,98968.63
2022-12-26T10:47:38.506Z,98962.91
2022-12-26T10:50:06.075Z,98969.94
2022-12-26T10:52:40.776Z,98973.47
2022-12-26T10:55:28.729Z,98981.00
2022-12-26T10:58:01.800Z,98971.78
2022-12-26T11:00:29.345Z,98966.06
2022-12-26T11:03:11.876Z,98960.56
2022-12-26T11:08:43.813Z,98963.44
2022-12-26T11:11:46.024Z,98941.44
2022-12-26T11:14:39.209Z,98926.22
2022-12-26T11:17:26.589Z,98929.34
2022-12-26T11:20:15.194Z,98933.91
2022-12-26T11:22:46.544Z,98934.09
2022-12-26T11:25:21.321Z,98934.09
2022-12-26T11:27:52.335Z,98933.50
2022-12-26T11:30:24.955Z,98927.53
2022-12-26T11:33:21.081Z,98932.94
2022-12-26T11:35:53.000Z,98939.47
2022-12-26T11:38:44.614Z,98942.19
2022-12-26T11:41:36.142Z,98961.47
2022-12-26T11:44:18.813Z,98960.13
2022-12-26T11:46:56.750Z,98961.47
2022-12-26T11:49:32.558Z,98952.22
2022-12-26T11:52:01.773Z,98941.59
2022-12-26T11:54:37.025Z,98941.28
2022-12-26T11:57:12.414Z,98933.88
2022-12-26T11:59:39.803Z,98929.25
2022-12-26T12:02:18.432Z,98911.00
2022-12-26T12:04:49.602Z,98917.44
2022-12-26T12:07:31.998Z,98913.91
2022-12-26T12:10:11.723Z,98909.88
2022-12-26T12:12:56.254Z,98921.03
2022-12-26T12:15:31.405Z,98937.31
2022-12-26T12:18:31.039Z,98934.59
2022-12-26T12:21:21.806Z,98925.16
2022-12-26T12:24:07.033Z,98931.59
2022-12-26T12:26:50.995Z,98928.38
2022-12-26T12:29:38.963Z,98922.94
2022-12-26T12:32:40.132Z,98922.72
2022-12-26T12:35:34.686Z,98923.53
2022-12-26T12:38:29.230Z,98923.22
2022-12-26T12:41:17.985Z,98919.13
2022-12-26T12:44:26.588Z,98916.59
2022-12-26T12:47:00.217Z,98914.63
2022-12-26T12:49:42.594Z,98925.38
2022-12-26T12:52:09.548Z,98920.25
2022-12-26T12:54:55.208Z,98912.94
2022-12-26T12:57:32.990Z,98912.94
2022-12-26T13:00:22.004Z,98908.09
2022-12-26T13:03:12.339Z,98905.88
2022-12-26T13:05:39.607Z,98912.22
2022-12-26T13:08:22.647Z,98899.69
2022-12-26T13:10:54.594Z,98905.00
2022-12-26T13:13:36.631Z,98889.22
2022-12-26T13:16:12.725Z,98899.78
2022-12-26T13:18:48.889Z,98892.22
2022-12-26T13:21:16.464Z,98898.97
2022-12-26T13:24:15.281Z,98901.69
2022-12-26T13:26:46.927Z,98903.91
2022-12-26T13:29:31.145Z,98903.09
2022-12-26T13:32:04.458Z,98899.78
2022-12-26T13:34:32.374Z,98895.66
2022-12-26T13:37:00.948Z,98891.34
2022-12-26T13:39:27.917Z,98884.19
2022-12-26T13:42:42.885Z,98879.56
2022-12-26T13:45:42.341Z,98877.94
2022-12-26T13:48:12.193Z,98879.06
2022-12-26T13:50:48.516Z,98878.28
2022-12-26T13:53:29.675Z,98886.19
2022-12-26T13:55:56.928Z,98884.31
2022-12-26T13:58:32.255Z,98871.34
2022-12-26T14:01:34.454Z,98867.28
2022-12-26T14:04:37.928Z,98873.53
2022-12-26T14:07:38.113Z,98859.97
2022-12-26T14:10:29.706Z,98878.66
2022-12-26T14:13:23.403Z,98870.50
2022-12-26T14:16:09.092Z,98882.47
2022-12-26T14:18:52.718Z,98892.03
2022-12-26T14:21:33.015Z,98888.50
2022-12-26T14:24:23.477Z,98881.97
2022-12-26T14:27:22.593Z,98870.22
2022-12-26T14:30:21.012Z,98866.31
2022-12-26T14:33:29.053Z,98873.34
2022-12-26T14:36:34.013Z,98890.22
2022-12-26T14:39:24.403Z,98881.38
2022-12-26T14:42:25.200Z,98881.97
2022-12-26T14:44:59.458Z,98880.97
2022-12-26T14:47:44.513Z,98868.31
2022-12-26T14:50:42.061Z,98863.47
2022-12-26T14:53:27.408Z,98866.28
2022-12-26T14:56:02.158Z,98858.44
2022-12-26T14:58:40.278Z,98865.56
2022-12-26T15:01:10.604Z,98866.97
2022-12-26T15:04:00.346Z,98867.25
2022-12-26T15:06:47.449Z,98870.28
2022-12-26T15:09:41.774Z,98868.38
2022-12-26T15:12:31.303Z,98875.72
2022-12-26T15:15:24.354Z,98881.94
2022-12-26T15:18:19.387Z,98897.09
2022-12-26T15:21:45.131Z,98896.31
2022-12-26T15:24:52.526Z,98901.44
2022-12-26T15:27:28.729Z,98892.78
2022-12-26T15:30:10.337Z,98895.81
2022-12-26T15:33:06.478Z,98903.44
2022-12-26T15:35:48.194Z,98909.47
2022-12-26T15:38:23.191Z,98906.03
2022-12-26T15:41:22.959Z,98902.75
2022-12-26T15:44:02.571Z,98893.66
2022-12-26T15:46:36.854Z,98899.16
2022-12-26T15:49:21.286Z,98899.72
2022-12-26T15:51:56.068Z,98889.78
2022-12-26T15:54:57.015Z,98901.22
2022-12-26T15:57:32.769Z,98907.25
2022-12-26T16:00:16.424Z,98908.34
2022-12-26T16:02:58.594Z,98918.34
2022-12-26T16:05:45.650Z,98920.28
2022-12-26T16:08:36.281Z,98917.84
2022-12-26T16:11:22.720Z,98922.75
2022-12-26T16:14:01.591Z,98932.50
2022-12-26T16:16:35.757Z,98930.88
2022-12-26T16:19:18.443Z,98933.59
2022-12-26T16:22:08.420Z,98941.72
2022-12-26T16:24:38.404Z,98932.28
2022-12-26T16:27:08.129Z,98930.38
2022-12-26T16:29:44.758Z,98935.78
2022-12-26T16:32:16.866Z,98916.81
2022-12-26T16:34:44.570Z,98932.56
2022-12-26T16:37:19.069Z,98934.50
2022-12-26T16:40:04.285Z,98958.06
2022-12-26T16:42:32.306Z,98939.41
2022-12-26T16:44:59.467Z,98945.41
2022-12-26T16:47:28.432Z,98950.59
2022-12-26T16:49:56.630Z,98944.66
2022-12-26T16:52:45.632Z,98955.50
2022-12-26T16:55:38.944Z,98954.69
2022-12-26T16:58:25.877Z,98971.25
2022-12-26T17:00:58.679Z,98969.63
2022-12-26T17:03:53.341Z,98949.63
2022-12-26T17:06:27.757Z,98954.22
2022-12-26T17:08:56.765Z,98948.59
2022-12-26T17:11:33.149Z,98960.53
2022-12-26T17:14:02.576Z,98959.44
2022-12-26T17:16:32.005Z,98977.66
2022-12-26T17:19:18.621Z,98973.03
2022-12-26T17:22:04.268Z,98969.44
2022-12-26T17:24:31.130Z,98969.75
2022-12-26T17:27:14.860Z,98975.69
2022-12-26T17:30:00.513Z,98973.72
2022-12-26T17:32:34.919Z,98981.31
2022-12-26T17:35:11.387Z,98970.78
2022-12-26T17:37:38.426Z,98977.88
2022-12-26T17:40:14.388Z,98974.09
2022-12-26T17:42:50.654Z,98978.97
2022-12-26T17:45:24.678Z,98975.69
2022-12-26T17:47:53.843Z,98987.31
2022-12-26T17:50:22.651Z,98990.03
2022-12-26T17:52:50.471Z,99000.88
2022-12-26T17:55:26.202Z,99010.09
2022-12-26T17:57:53.546Z,99020.66
2022-12-26T18:00:24.153Z,99023.63
2022-12-26T18:02:51.757Z,99029.06
2022-12-26T18:05:19.652Z,99051.63
2022-12-26T18:07:49.047Z,99050.00
2022-12-26T18:10:19.550Z,99071.72
2022-12-26T18:12:47.042Z,99073.91
2022-12-26T18:15:14.645Z,99077.47
2022-12-26T18:17:42.281Z,99085.38
2022-12-26T18:20:16.397Z,99082.72
2022-12-26T18:22:43.146Z,99087.63
2022-12-26T18:25:13.522Z,99088.19
2022-12-26T18:27:40.516Z,99078.50
2022-12-26T18:30:14.225Z,99075.84
2022-12-26T18:32:43.636Z,99089.06
2022-12-26T18:35:10.555Z,99089.38
2022-12-26T18:37:37.344Z,99093.22
2022-12-26T18:40:06.057Z,99088.38
2022-12-26T18:42:32.862Z,99095.44
2022-12-26T18:44:59.603Z,99084.63
2022-12-26T18:47:26.357Z,99085.97
2022-12-26T18:49:53.544Z,99101.94
2022-12-26T18:52:20.826Z,99107.38
2022-12-26T18:54:47.755Z,99114.41
2022-12-26T18:57:20.506Z,99112.47
2022-12-26T18:59:48.345Z,99130.63
2022-12-26T19:02:17.878Z,99121.13
2022-12-26T19:04:48.268Z,99141.16
2022-12-26T19:07:16.981Z,99150.94
2022-12-26T19:09:49.611Z,99165.84
2022-12-26T19:12:17.398Z,99168.00
2022-12-26T19:14:45.696Z,99173.47
2022-12-26T19:17:13.444Z,99169.69
2022-12-26T19:19:40.526Z,99167.84
2022-12-26T19:22:07.926Z,99164.13
2022-12-26T19:24:34.903Z,99172.50
2022-12-26T19:27:04.808Z,99181.72
2022-12-26T19:29:32.434Z,99187.69
2022-12-26T19:31:59.339Z,99192.56
2022-12-26T19:34:26.394Z,99205.28
2022-12-26T19:36:53.297Z,99205.56
2022-12-26T19:39:23.701Z,99214.22
2022-12-26T19:41:50.669Z,99222.09
2022-12-26T19:44:17.716Z,99233.47
2022-12-26T19:46:44.471Z,99228.06
2022-12-26T19:49:11.473Z,99228.88
2022-12-26T19:51:38.437Z,99232.69
2022-12-26T19:54:06.834Z,99252.16
2022-12-26T19:56:34.067Z,99245.44
2022-12-26T19:59:00.894Z,99242.72
2022-12-26T20:01:30.493Z,99259.50
2022-12-26T20:04:01.936Z,99263.81
2022-12-26T20:06:30.845Z,99259.22
2022-12-26T20:08:59.897Z,99273.81
2022-12-26T20:11:32.762Z,99269.75
2022-12-26T20:14:01.612Z,99280.31
2022-12-26T20:17:03.834Z,99282.75
2022-12-26T20:19:16.083Z,99307.09
2022-12-26T20:21:42.975Z,99309.81
2022-12-26T20:24:11.268Z,99311.66
2022-12-26T20:26:38.973Z,99314.91
2022-12-26T20:29:05.845Z,99320.88
2022-12-26T20:31:33.111Z,99325.75
2022-12-26T20:34:00.480Z,99332.78
2022-12-26T20:36:30.558Z,99336.56
2022-12-26T20:39:00.952Z,99332.50
2022-12-26T20:41:28.585Z,99329.78
2022-12-26T20:43:56.039Z,99332.25
2022-12-26T20:46:34.631Z,99335.19
2022-12-26T20:49:04.888Z,99348.19
2022-12-26T20:51:37.511Z,99352.50
2022-12-26T20:54:10.738Z,99360.38
2022-12-26T20:56:38.530Z,99373.34
2022-12-26T20:59:08.671Z,99377.13
2022-12-26T21:01:36.543Z,99375.50
2022-12-26T21:04:03.811Z,99387.66
2022-12-26T21:06:32.732Z,99386.88
2022-12-26T21:08:59.849Z,99387.41
2022-12-26T21:11:29.788Z,99404.69
2022-12-26T21:13:59.993Z,99406.56
2022-12-26T21:16:30.837Z,99413.88
2022-12-26T21:18:58.572Z,99419.53
2022-12-26T21:21:29.656Z,99434.13
2022-12-26T21:24:07.482Z,99437.94
2022-12-26T21:26:39.543Z,99435.50
2022-12-26T21:29:11.845Z,99443.63
2022-12-26T21:31:38.749Z,99448.47
2022-12-26T21:34:09.078Z,99457.66
2022-12-26T21:36:35.962Z,99466.31
2022-12-26T21:39:10.161Z,99462.53
2022-12-26T21:41:37.695Z,99470.63
2022-12-26T21:44:05.245Z,99483.31
2022-12-26T21:46:32.133Z,99486.31
2022-12-26T21:49:03.644Z,99490.91
2022-12-26T21:51:32.135Z,99493.34
2022-12-26T21:54:18.993Z,99500.38
2022-12-26T21:56:49.319Z,99500.09
2022-12-26T21:59:34.943Z,99502.25
2022-12-26T22:02:02.014Z,99501.44
2022-12-26T22:04:29.323Z,99514.97
2022-12-26T22:06:56.115Z,99520.38
2022-12-26T22:09:23.037Z,99529.81
2022-12-26T22:12:11.597Z,99534.38
2022-12-26T22:14:38.512Z,99537.34
2022-12-26T22:17:05.534Z,99543.56
2022-12-26T22:19:32.650Z,99537.59
2022-12-26T22:21:59.498Z,99536.78
2022-12-26T22:24:27.299Z,99530.03
2022-12-26T22:26:55.054Z,99536.25
2022-12-26T22:29:21.865Z,99540.84
2022-12-26T22:31:48.637Z,99541.41
2022-12-26T22:34:16.719Z,99548.44
2022-12-26T22:36:44.146Z,99548.13
2022-12-26T22:39:14.161Z,99553.00
2022-12-26T22:41:41.109Z,99565.94
2022-12-26T22:44:12.016Z,99564.31
2022-12-26T22:46:38.886Z,99576.75
2022-12-26T22:49:06.174Z,99577.59
2022-12-26T22:51:33.080Z,99579.75
2022-12-26T22:54:03.558Z,99590.00
2022-12-26T22:56:30.750Z,99593.75
2022-12-26T22:59:02.968Z,99596.97
2022-12-26T23:01:32.376Z,99592.63
2022-12-26T23:04:01.265Z,99604.50
2022-12-26T23:06:31.434Z,99612.59
2022-12-26T23:09:00.953Z,99618.00
2022-12-26T23:11:34.827Z,99623.94
2022-12-26T23:14:06.214Z,99631.25
2022-12-26T23:16:43.770Z,99639.59
2022-12-26T23:19:38.870Z,99636.63
2022-12-26T23:22:06.173Z,99633.91
2022-12-26T23:24:33.408Z,99636.06
2022-12-26T23:27:24.949Z,99637.88
2022-12-26T23:30:14.043Z,99647.03
2022-12-26T23:32:45.500Z,99646.50
2022-12-26T23:35:27.638Z,99657.22
2022-12-26T23:37:54.759Z,99651.25
2022-12-26T23:40:22.059Z,99653.69
2022-12-26T23:42:49.041Z,99653.41
2022-12-26T23:45:16.950Z,99656.09
2022-12-26T23:47:45.347Z,99653.34
2022-12-26T23:50:14.218Z,99658.72
2022-12-26T23:52:41.221Z,99664.63
2022-12-26T23:55:09.054Z,99654.56
2022-12-26T23:57:35.841Z,99666.69
